Terminal Aerodrome Forecast
Issued by NWS

Home | Current Version | Previous Version | Graphics & Text | Print | Product List | Glossary On
Versions: 1 2 3 4 5 6 7 8 9 10 11 12 13 14 15 16 17 18 19 20 21 22 23 24 25 26 27 28 29
266
FTUS43 KABR 112326
TAFPIR
TAF
KPIR 112326Z 1200/1224 07008KT P6SM SCT009 BKN050
     FM120300 36005KT 6SM BR OVC011
     FM121200 03010KT 6SM BR OVC015
     FM122000 08010KT P6SM OVC060=

USA.gov is the U.S. government's official web portal to all federal, state and local government web resources and services.